createdAt,value
2024-01-29T00:00:21.225Z,33.60
2024-01-29T00:01:15.015Z,33.80
2024-01-29T00:01:57.247Z,30.30
2024-01-29T00:02:33.597Z,27.90
2024-01-29T00:03:07.629Z,28.50
2024-01-29T00:03:41.728Z,27.30
2024-01-29T00:04:15.703Z,29.40
2024-01-29T00:04:49.368Z,29.30
2024-01-29T00:05:22.991Z,31.70
2024-01-29T00:05:56.756Z,28.70
2024-01-29T00:06:31.298Z,32.80
2024-01-29T00:07:05.465Z,32.50
2024-01-29T00:07:38.985Z,31.60
2024-01-29T00:08:12.916Z,31.80
2024-01-29T00:08:46.564Z,29.40
2024-01-29T00:09:20.166Z,28.90
2024-01-29T00:09:54.128Z,29.30
2024-01-29T00:10:27.832Z,31.30
2024-01-29T00:11:01.475Z,28.20
2024-01-29T00:11:35.285Z,29.40
2024-01-29T00:12:09.125Z,29.60
2024-01-29T00:12:43.253Z,30.20
2024-01-29T00:13:16.773Z,27.60
2024-01-29T00:13:50.158Z,28.80
2024-01-29T00:14:24.152Z,28.00
2024-01-29T00:14:57.771Z,29.10
2024-01-29T00:15:31.727Z,27.00
2024-01-29T00:16:05.615Z,30.70
2024-01-29T00:16:39.609Z,27.20
2024-01-29T00:17:13.241Z,27.60
2024-01-29T00:17:47.114Z,28.00
2024-01-29T00:18:20.902Z,28.10
2024-01-29T00:18:54.682Z,27.20
2024-01-29T00:19:29.049Z,26.90
2024-01-29T00:20:03.097Z,27.40
2024-01-29T00:20:36.801Z,26.50
2024-01-29T00:21:10.300Z,27.10
2024-01-29T00:21:44.039Z,28.50
2024-01-29T00:22:17.733Z,26.90
2024-01-29T00:22:51.497Z,26.90
2024-01-29T00:23:25.522Z,27.50
2024-01-29T00:24:02.293Z,28.90
2024-01-29T00:24:35.860Z,26.50
2024-01-29T00:25:10.194Z,27.90
2024-01-29T00:25:43.785Z,25.60
2024-01-29T00:26:17.363Z,29.90
2024-01-29T00:26:51.707Z,26.60
2024-01-29T00:27:25.564Z,27.20
2024-01-29T00:27:59.312Z,32.90
2024-01-29T00:28:32.948Z,29.60
2024-01-29T00:29:07.115Z,30.60
2024-01-29T00:29:40.516Z,31.30
2024-01-29T00:30:14.392Z,29.20
2024-01-29T00:30:47.989Z,31.80
2024-01-29T00:31:23.958Z,32.70
2024-01-29T00:31:57.653Z,32.60
2024-01-29T00:32:31.345Z,34.10
2024-01-29T00:33:05.188Z,34.50
2024-01-29T00:33:39.038Z,31.50
2024-01-29T00:34:12.861Z,30.80
2024-01-29T00:34:49.695Z,32.60
2024-01-29T00:35:23.286Z,31.30
2024-01-29T00:35:56.978Z,30.40
2024-01-29T00:36:30.684Z,27.60
2024-01-29T00:37:04.929Z,26.70
2024-01-29T00:37:38.471Z,29.10
2024-01-29T00:38:11.957Z,30.30
2024-01-29T00:38:45.297Z,25.80
2024-01-29T00:39:18.798Z,27.70
2024-01-29T00:39:52.539Z,27.00
2024-01-29T00:40:26.680Z,26.50
2024-01-29T00:41:00.313Z,27.60
2024-01-29T00:41:34.599Z,29.00
2024-01-29T00:42:08.105Z,29.00
2024-01-29T00:42:42.265Z,28.10
2024-01-29T00:43:16.237Z,25.80
2024-01-29T00:43:49.835Z,27.00
2024-01-29T00:44:23.435Z,31.10
2024-01-29T00:44:56.811Z,31.20
2024-01-29T00:45:31.119Z,30.70
2024-01-29T00:46:05.116Z,29.10
2024-01-29T00:46:43.759Z,30.10
2024-01-29T00:47:17.336Z,30.20
2024-01-29T00:47:51.336Z,31.00
2024-01-29T00:48:26.619Z,30.80
2024-01-29T00:49:00.388Z,29.10
2024-01-29T00:49:34.524Z,27.30
2024-01-29T00:50:09.778Z,31.30
2024-01-29T00:50:43.588Z,32.80
2024-01-29T00:51:17.349Z,30.30
2024-01-29T00:51:51.232Z,29.10
2024-01-29T00:52:24.985Z,30.40
2024-01-29T00:52:58.646Z,30.80
2024-01-29T00:53:32.445Z,29.10
2024-01-29T00:54:06.216Z,33.80
2024-01-29T00:54:40.447Z,27.10
2024-01-29T00:55:14.823Z,27.30
2024-01-29T00:55:48.501Z,29.80
2024-01-29T00:56:22.109Z,25.80
2024-01-29T00:56:55.864Z,27.20
2024-01-29T00:57:29.309Z,27.20
2024-01-29T00:58:03.173Z,26.10
2024-01-29T00:58:37.061Z,28.30
2024-01-29T00:59:11.156Z,29.70
2024-01-29T00:59:45.027Z,29.10
2024-01-29T01:00:18.853Z,27.80
2024-01-29T01:00:52.574Z,25.40
2024-01-29T01:01:26.298Z,28.50
2024-01-29T01:01:59.934Z,29.50
2024-01-29T01:02:33.717Z,27.90
2024-01-29T01:03:07.594Z,27.30
2024-01-29T01:03:41.709Z,27.90
2024-01-29T01:04:16.568Z,24.40
2024-01-29T01:04:50.109Z,26.00
2024-01-29T01:05:23.781Z,28.40
2024-01-29T01:05:57.395Z,28.60
2024-01-29T01:06:30.996Z,29.40
2024-01-29T01:07:05.414Z,28.00
2024-01-29T01:07:39.083Z,29.00
2024-01-29T01:08:13.053Z,32.00
2024-01-29T01:08:46.657Z,28.20
2024-01-29T01:09:20.264Z,29.30
2024-01-29T01:09:53.871Z,28.10
2024-01-29T01:10:28.379Z,27.10
2024-01-29T01:11:01.811Z,30.60
2024-01-29T01:11:35.391Z,25.80
2024-01-29T01:12:09.151Z,26.80
2024-01-29T01:12:42.948Z,29.30
2024-01-29T01:13:17.389Z,27.10
2024-01-29T01:13:51.301Z,30.00
2024-01-29T01:14:24.912Z,27.80
2024-01-29T01:14:58.457Z,29.30
2024-01-29T01:15:31.906Z,27.60
2024-01-29T01:16:06.252Z,27.60
2024-01-29T01:16:39.976Z,28.90
2024-01-29T01:17:13.731Z,30.60
2024-01-29T01:17:47.978Z,33.00
2024-01-29T01:18:21.833Z,32.60
2024-01-29T01:18:56.342Z,32.30
2024-01-29T01:19:30.097Z,34.00
2024-01-29T01:20:04.867Z,32.40
2024-01-29T01:20:38.559Z,30.10
2024-01-29T01:21:12.042Z,34.20
2024-01-29T01:21:45.732Z,33.60
2024-01-29T01:22:19.391Z,34.40
2024-01-29T01:22:52.885Z,33.10
2024-01-29T01:23:26.590Z,34.00
2024-01-29T01:23:59.960Z,36.30
2024-01-29T01:24:33.575Z,34.90
2024-01-29T01:25:08.329Z,38.30
2024-01-29T01:25:42.596Z,39.50
2024-01-29T01:26:16.062Z,39.40
2024-01-29T01:26:49.665Z,40.30
2024-01-29T01:27:23.234Z,36.30
2024-01-29T01:27:57.632Z,38.30
2024-01-29T01:28:31.075Z,39.80
2024-01-29T01:29:05.925Z,39.50
2024-01-29T01:29:39.538Z,40.00
2024-01-29T01:30:13.121Z,38.10
2024-01-29T01:30:46.726Z,39.60
2024-01-29T01:31:20.404Z,40.80
2024-01-29T01:31:53.763Z,40.20
2024-01-29T01:32:27.454Z,40.30
2024-01-29T01:33:00.985Z,44.10
2024-01-29T01:33:34.555Z,41.80
2024-01-29T01:34:08.219Z,39.70
2024-01-29T01:34:41.747Z,38.50
2024-01-29T01:35:15.258Z,36.70
2024-01-29T01:35:48.942Z,35.80
2024-01-29T01:36:22.511Z,39.60
2024-01-29T01:36:55.995Z,41.10
2024-01-29T01:37:29.448Z,43.40
2024-01-29T01:38:02.935Z,43.80
2024-01-29T01:38:36.171Z,45.50
2024-01-29T01:39:10.101Z,44.50
2024-01-29T01:39:43.919Z,49.20
2024-01-29T01:40:17.786Z,48.00
2024-01-29T01:40:51.295Z,47.20
2024-01-29T01:41:24.852Z,42.10
2024-01-29T01:41:58.780Z,40.90
2024-01-29T01:42:32.737Z,44.20
2024-01-29T01:43:22.415Z,41.20
2024-01-29T01:43:55.900Z,42.70
2024-01-29T01:44:29.797Z,44.10
2024-01-29T01:45:03.486Z,39.80
2024-01-29T01:45:37.241Z,42.00
2024-01-29T01:46:30.035Z,40.60
2024-01-29T01:47:04.528Z,37.50
2024-01-29T01:47:38.962Z,37.10
2024-01-29T01:48:13.404Z,44.40
2024-01-29T01:48:47.297Z,43.10
2024-01-29T01:49:22.889Z,42.00
2024-01-29T01:49:56.607Z,39.80
2024-01-29T01:50:30.354Z,46.50
2024-01-29T01:51:05.590Z,46.60
2024-01-29T01:51:39.593Z,44.60
2024-01-29T01:52:13.285Z,46.10
2024-01-29T01:52:46.927Z,46.50
2024-01-29T01:53:20.842Z,45.20
2024-01-29T01:54:00.566Z,46.30
2024-01-29T01:54:35.112Z,46.10
2024-01-29T01:55:09.395Z,43.30
2024-01-29T01:55:43.166Z,42.10
2024-01-29T01:56:16.764Z,45.40
2024-01-29T01:56:50.819Z,48.70
2024-01-29T01:57:24.704Z,47.70
2024-01-29T01:58:00.358Z,45.80
2024-01-29T01:58:36.628Z,49.30
2024-01-29T01:59:13.159Z,42.90
2024-01-29T01:59:47.684Z,50.60
2024-01-29T02:00:22.510Z,46.10
2024-01-29T02:00:59.684Z,46.30
2024-01-29T02:01:33.762Z,49.80
2024-01-29T02:02:09.585Z,44.60
2024-01-29T02:02:44.238Z,46.20
2024-01-29T02:03:18.471Z,46.70
2024-01-29T02:03:52.285Z,46.60
2024-01-29T02:04:26.136Z,46.50
2024-01-29T02:05:00.029Z,44.10
2024-01-29T02:05:33.876Z,44.60
2024-01-29T02:06:08.596Z,48.50
2024-01-29T02:06:44.922Z,43.60
2024-01-29T02:07:19.232Z,45.30
2024-01-29T02:07:53.271Z,47.10
2024-01-29T02:08:27.289Z,48.10
2024-01-29T02:09:02.015Z,47.90
2024-01-29T02:09:35.612Z,45.00
2024-01-29T02:10:10.000Z,44.30
2024-01-29T02:10:43.589Z,45.20
2024-01-29T02:11:17.168Z,44.30
2024-01-29T02:11:50.668Z,45.50
2024-01-29T02:12:24.305Z,48.60
2024-01-29T02:12:58.171Z,47.60
2024-01-29T02:13:32.543Z,48.10
2024-01-29T02:14:06.363Z,44.90
2024-01-29T02:14:39.846Z,48.70
2024-01-29T02:15:13.641Z,44.60
2024-01-29T02:15:47.169Z,47.00
2024-01-29T02:16:20.699Z,49.10
2024-01-29T02:16:54.274Z,47.00
2024-01-29T02:17:27.968Z,47.30
2024-01-29T02:18:01.630Z,46.00
2024-01-29T02:18:35.739Z,50.50
2024-01-29T02:19:17.801Z,48.60
2024-01-29T02:19:52.228Z,51.90
2024-01-29T02:20:25.947Z,46.00
2024-01-29T02:20:59.656Z,51.80
2024-01-29T02:21:33.362Z,54.00
2024-01-29T02:22:07.026Z,54.20
2024-01-29T02:22:47.095Z,54.00
2024-01-29T02:23:20.541Z,53.70
2024-01-29T02:23:54.141Z,52.80
2024-01-29T02:24:27.662Z,53.10
2024-01-29T02:25:01.363Z,56.90
2024-01-29T02:25:35.378Z,55.10
2024-01-29T02:26:08.974Z,54.20
2024-01-29T02:26:46.901Z,57.50
2024-01-29T02:27:20.512Z,54.50
2024-01-29T02:27:54.537Z,56.00
2024-01-29T02:28:29.289Z,54.60
2024-01-29T02:29:02.956Z,57.80
2024-01-29T02:29:36.338Z,52.30
2024-01-29T02:30:10.584Z,56.70
2024-01-29T02:30:44.843Z,52.00
2024-01-29T02:31:18.561Z,53.90
2024-01-29T02:31:52.133Z,58.00
2024-01-29T02:32:25.786Z,52.20
2024-01-29T02:33:00.159Z,55.10
2024-01-29T02:33:33.983Z,53.70
2024-01-29T02:34:08.278Z,55.20
2024-01-29T02:34:42.029Z,54.90
2024-01-29T02:35:15.702Z,57.20
2024-01-29T02:35:49.597Z,59.90
2024-01-29T02:36:23.099Z,53.90
2024-01-29T02:36:56.903Z,55.90
2024-01-29T02:37:30.881Z,56.90
2024-01-29T02:38:04.801Z,55.70
2024-01-29T02:38:38.864Z,56.60
2024-01-29T02:39:14.303Z,58.40
2024-01-29T02:39:51.917Z,57.80
2024-01-29T02:40:25.398Z,55.50
2024-01-29T02:40:59.490Z,57.40
2024-01-29T02:41:35.901Z,59.50
2024-01-29T02:42:10.045Z,56.80
2024-01-29T02:42:43.884Z,56.20
2024-01-29T02:43:17.495Z,55.00
2024-01-29T02:43:51.126Z,54.00
2024-01-29T02:44:25.013Z,56.60
2024-01-29T02:44:58.566Z,52.10
2024-01-29T02:45:33.228Z,51.30
2024-01-29T02:46:06.731Z,52.50
2024-01-29T02:46:43.506Z,51.70
2024-01-29T02:47:17.126Z,51.00
2024-01-29T02:47:50.645Z,52.60
2024-01-29T02:48:24.383Z,52.50
2024-01-29T02:48:58.257Z,52.80
2024-01-29T02:49:31.962Z,56.90
2024-01-29T02:50:06.190Z,52.60
2024-01-29T02:50:39.658Z,54.20
2024-01-29T02:51:13.795Z,48.20
2024-01-29T02:51:47.390Z,51.30
2024-01-29T02:52:22.395Z,51.70
2024-01-29T02:52:55.852Z,52.90
2024-01-29T02:53:29.542Z,52.00
2024-01-29T02:54:03.156Z,58.20
2024-01-29T02:54:36.788Z,51.80
2024-01-29T02:55:10.661Z,53.60
2024-01-29T02:55:44.229Z,50.40
2024-01-29T02:56:17.742Z,51.90
2024-01-29T02:56:51.476Z,53.40
2024-01-29T02:57:27.809Z,50.60
2024-01-29T02:58:01.598Z,49.10
2024-01-29T02:58:35.438Z,47.70
2024-01-29T02:59:08.904Z,48.80
2024-01-29T02:59:42.466Z,51.20
2024-01-29T03:00:16.398Z,52.40
2024-01-29T03:00:50.184Z,48.10
2024-01-29T03:01:24.126Z,47.60
2024-01-29T03:01:57.789Z,48.70
2024-01-29T03:02:31.345Z,48.90
2024-01-29T03:03:05.701Z,50.40
2024-01-29T03:03:39.346Z,50.30
2024-01-29T03:04:12.902Z,50.00
2024-01-29T03:04:46.899Z,50.60
2024-01-29T03:05:21.568Z,50.80
2024-01-29T03:05:54.934Z,53.90
2024-01-29T03:06:28.758Z,50.20
2024-01-29T03:07:02.505Z,49.90
2024-01-29T03:07:36.224Z,49.50
2024-01-29T03:08:09.847Z,50.90
2024-01-29T03:08:46.476Z,47.90
2024-01-29T03:09:20.030Z,48.60
2024-01-29T03:09:53.980Z,49.40
2024-01-29T03:10:27.776Z,46.40
2024-01-29T03:11:01.550Z,51.70
2024-01-29T03:11:35.106Z,45.90
2024-01-29T03:12:09.907Z,45.20
2024-01-29T03:12:45.368Z,49.50
2024-01-29T03:13:19.144Z,50.30
2024-01-29T03:13:52.736Z,47.70
2024-01-29T03:14:26.415Z,52.70
2024-01-29T03:15:01.619Z,49.90
2024-01-29T03:15:37.325Z,47.30
2024-01-29T03:16:10.853Z,50.00
2024-01-29T03:16:44.418Z,48.60
2024-01-29T03:17:18.271Z,43.00
2024-01-29T03:17:52.167Z,38.60
2024-01-29T03:18:26.067Z,41.50
2024-01-29T03:18:59.795Z,41.70
2024-01-29T03:19:33.706Z,42.90
2024-01-29T03:20:08.355Z,42.00
2024-01-29T03:20:41.638Z,45.20
2024-01-29T03:21:15.569Z,45.30
2024-01-29T03:21:49.568Z,45.10
2024-01-29T03:22:23.083Z,42.80
2024-01-29T03:22:56.581Z,41.30
2024-01-29T03:23:30.673Z,39.70
2024-01-29T03:24:04.418Z,44.20
2024-01-29T03:24:37.972Z,41.60
2024-01-29T03:25:11.704Z,44.30
2024-01-29T03:25:45.543Z,39.80
2024-01-29T03:26:19.016Z,43.70
2024-01-29T03:26:52.481Z,37.90
2024-01-29T03:27:26.166Z,40.20
2024-01-29T03:27:59.880Z,41.20
2024-01-29T03:28:33.375Z,40.50
2024-01-29T03:29:07.231Z,36.60
2024-01-29T03:29:40.723Z,36.30
2024-01-29T03:30:14.459Z,40.20
2024-01-29T03:30:48.296Z,38.00
2024-01-29T03:31:21.725Z,37.60
2024-01-29T03:31:56.349Z,36.70
2024-01-29T03:32:30.372Z,39.70
2024-01-29T03:33:04.638Z,39.60
2024-01-29T03:33:38.388Z,36.00
2024-01-29T03:34:12.066Z,38.40
2024-01-29T03:34:46.238Z,36.90
2024-01-29T03:35:19.615Z,42.30
2024-01-29T03:35:53.077Z,37.80
2024-01-29T03:36:26.493Z,40.60
2024-01-29T03:37:00.336Z,42.20
2024-01-29T03:37:33.962Z,37.50
2024-01-29T03:38:07.830Z,41.70
2024-01-29T03:38:41.450Z,39.50
2024-01-29T03:39:14.913Z,36.30
2024-01-29T03:39:48.505Z,35.00
2024-01-29T03:40:22.002Z,35.50
2024-01-29T03:40:55.528Z,34.10
2024-01-29T03:41:29.145Z,38.90
2024-01-29T03:42:02.841Z,33.30
2024-01-29T03:42:36.365Z,34.20
2024-01-29T03:43:10.206Z,34.30
2024-01-29T03:43:44.029Z,36.30
2024-01-29T03:44:18.644Z,32.70
2024-01-29T03:44:51.831Z,28.20
2024-01-29T03:45:25.312Z,31.60
2024-01-29T03:45:59.614Z,30.80
2024-01-29T03:46:33.179Z,29.40
2024-01-29T03:47:06.878Z,27.90
2024-01-29T03:47:40.499Z,33.00
2024-01-29T03:48:14.455Z,34.40
2024-01-29T03:48:48.250Z,31.10
2024-01-29T03:49:22.073Z,30.90
2024-01-29T03:49:55.570Z,30.50
2024-01-29T03:50:29.855Z,31.60
2024-01-29T03:51:03.429Z,27.50
2024-01-29T03:51:37.705Z,29.10
2024-01-29T03:52:11.434Z,29.80
2024-01-29T03:52:46.219Z,28.40
2024-01-29T03:53:19.732Z,31.90
2024-01-29T03:53:53.477Z,28.50
2024-01-29T03:54:27.018Z,28.00
2024-01-29T03:55:00.774Z,31.90
2024-01-29T03:55:34.433Z,31.60
2024-01-29T03:56:08.033Z,32.60
2024-01-29T03:56:41.772Z,30.50
2024-01-29T03:57:15.332Z,31.20
2024-01-29T03:57:48.961Z,29.90
2024-01-29T03:58:22.604Z,29.50
2024-01-29T03:58:55.969Z,32.40
2024-01-29T03:59:29.382Z,28.40
2024-01-29T04:00:03.900Z,29.00
2024-01-29T04:00:37.766Z,33.40
2024-01-29T04:01:11.448Z,28.90
2024-01-29T04:01:45.285Z,27.90
2024-01-29T04:02:19.108Z,27.20
2024-01-29T04:02:53.074Z,30.40
2024-01-29T04:03:26.927Z,29.10
2024-01-29T04:04:00.860Z,30.10
2024-01-29T04:04:35.513Z,26.90
2024-01-29T04:05:11.181Z,26.60
2024-01-29T04:05:48.384Z,25.00
2024-01-29T04:06:22.045Z,30.20
2024-01-29T04:06:55.582Z,26.80
2024-01-29T04:07:30.594Z,25.50
2024-01-29T04:08:04.910Z,29.80
2024-01-29T04:08:38.576Z,27.10
2024-01-29T04:09:14.293Z,25.30
2024-01-29T04:09:47.953Z,27.20
2024-01-29T04:10:22.362Z,33.60
2024-01-29T04:10:55.996Z,25.90
2024-01-29T04:11:30.752Z,24.90
2024-01-29T04:12:05.125Z,27.20
2024-01-29T04:12:38.934Z,26.10
2024-01-29T04:13:12.179Z,25.40
2024-01-29T04:13:45.756Z,24.20
2024-01-29T04:14:22.521Z,22.10
2024-01-29T04:14:57.236Z,23.40
2024-01-29T04:15:31.154Z,27.10
2024-01-29T04:16:05.325Z,25.40
2024-01-29T04:16:39.013Z,19.60
2024-01-29T04:17:14.072Z,22.10
2024-01-29T04:17:47.489Z,20.20
2024-01-29T04:18:21.227Z,21.20
2024-01-29T04:18:54.989Z,23.10
2024-01-29T04:19:28.543Z,20.80
2024-01-29T04:20:06.581Z,24.10
2024-01-29T04:20:40.059Z,23.10
2024-01-29T04:21:13.556Z,22.50
2024-01-29T04:21:47.294Z,24.90
2024-01-29T04:22:20.918Z,23.10
2024-01-29T04:22:54.514Z,21.30
2024-01-29T04:23:28.002Z,22.10
2024-01-29T04:24:01.475Z,22.90
2024-01-29T04:24:34.907Z,22.60
2024-01-29T04:25:09.685Z,22.90
2024-01-29T04:25:43.164Z,20.00
2024-01-29T04:26:17.256Z,23.80
2024-01-29T04:26:50.970Z,21.30
2024-01-29T04:27:24.507Z,21.10
2024-01-29T04:27:58.218Z,20.20
2024-01-29T04:28:31.939Z,19.90
2024-01-29T04:29:05.726Z,19.90
2024-01-29T04:29:40.066Z,22.70
2024-01-29T04:30:14.563Z,20.20
2024-01-29T04:30:48.573Z,21.90
2024-01-29T04:31:22.234Z,22.30
2024-01-29T04:31:56.616Z,21.60
2024-01-29T04:32:30.559Z,18.80
2024-01-29T04:33:04.467Z,21.00
2024-01-29T04:33:39.677Z,23.00
2024-01-29T04:34:13.288Z,23.60
2024-01-29T04:34:47.536Z,20.80
2024-01-29T04:35:21.236Z,25.30
2024-01-29T04:35:54.732Z,22.50
2024-01-29T04:36:28.456Z,22.30
2024-01-29T04:37:02.108Z,24.90
2024-01-29T04:37:35.575Z,22.90
2024-01-29T04:38:09.154Z,21.50
2024-01-29T04:38:46.424Z,22.30
2024-01-29T04:39:20.014Z,23.20
2024-01-29T04:39:53.518Z,21.40
2024-01-29T04:40:27.427Z,25.50
2024-01-29T04:41:00.998Z,24.30
2024-01-29T04:41:34.541Z,27.90
2024-01-29T04:42:08.867Z,22.20
2024-01-29T04:42:42.471Z,29.00
2024-01-29T04:43:15.945Z,23.30
2024-01-29T04:43:50.204Z,22.50
2024-01-29T04:44:23.754Z,24.70
2024-01-29T04:44:57.111Z,17.00
2024-01-29T04:45:30.813Z,19.80
2024-01-29T04:46:04.720Z,22.60
2024-01-29T04:46:38.474Z,17.30
2024-01-29T04:47:12.186Z,19.30
2024-01-29T04:47:45.702Z,16.60
2024-01-29T04:48:19.267Z,16.50
2024-01-29T04:48:52.830Z,19.00
2024-01-29T04:49:26.274Z,19.60
2024-01-29T04:50:00.207Z,15.90
2024-01-29T04:50:33.730Z,13.90
2024-01-29T04:51:09.057Z,16.00
2024-01-29T04:52:16.368Z,14.60
2024-01-29T04:52:50.536Z,14.80
2024-01-29T04:53:24.003Z,15.40
2024-01-29T04:53:57.695Z,16.90
2024-01-29T04:54:31.947Z,20.50
2024-01-29T04:55:06.341Z,16.10
2024-01-29T04:55:39.788Z,14.30
2024-01-29T04:56:14.313Z,14.90
2024-01-29T04:56:48.102Z,16.40
2024-01-29T04:57:23.949Z,17.30
2024-01-29T04:57:57.807Z,14.70
2024-01-29T04:58:32.277Z,15.50
2024-01-29T04:59:05.827Z,15.50
2024-01-29T04:59:39.303Z,15.40
2024-01-29T05:00:13.325Z,15.90
2024-01-29T05:00:46.833Z,17.20
2024-01-29T05:01:20.919Z,16.50
2024-01-29T05:01:54.598Z,16.20
2024-01-29T05:02:28.076Z,14.70
2024-01-29T05:03:01.582Z,15.80
2024-01-29T05:03:35.360Z,15.10
2024-01-29T05:04:09.422Z,16.60
2024-01-29T05:04:43.304Z,15.30
2024-01-29T05:05:17.225Z,18.50
2024-01-29T05:05:50.990Z,15.60
2024-01-29T05:06:25.197Z,20.50
2024-01-29T05:06:58.543Z,18.60
2024-01-29T05:07:32.103Z,15.80
2024-01-29T05:08:06.391Z,17.40
2024-01-29T05:08:40.697Z,16.30
2024-01-29T05:09:15.124Z,13.70
2024-01-29T05:09:48.941Z,16.10
2024-01-29T05:10:22.698Z,16.10
2024-01-29T05:10:56.409Z,16.10
2024-01-29T05:11:31.001Z,16.80
2024-01-29T05:12:06.716Z,16.40
2024-01-29T05:12:40.234Z,16.70
2024-01-29T05:13:14.320Z,16.90
2024-01-29T05:13:47.974Z,20.60
2024-01-29T05:14:21.467Z,18.70
2024-01-29T05:14:54.866Z,16.60
2024-01-29T05:15:29.257Z,18.40
2024-01-29T05:16:05.385Z,14.80
2024-01-29T05:16:40.352Z,17.40
2024-01-29T05:17:14.037Z,16.00
2024-01-29T05:17:47.908Z,17.00
2024-01-29T05:18:22.199Z,18.00
2024-01-29T05:18:55.914Z,14.80
2024-01-29T05:19:29.948Z,17.60
2024-01-29T05:20:04.165Z,22.20
2024-01-29T05:20:37.705Z,19.60
2024-01-29T05:21:12.771Z,15.70
2024-01-29T05:21:48.072Z,17.30
2024-01-29T05:22:23.521Z,20.50
2024-01-29T05:22:57.243Z,18.30
2024-01-29T05:23:30.761Z,20.30
2024-01-29T05:24:04.694Z,17.10
2024-01-29T05:24:39.018Z,18.70
2024-01-29T05:25:13.016Z,21.70
2024-01-29T05:25:47.106Z,21.50
2024-01-29T05:26:20.569Z,24.70
2024-01-29T05:26:54.245Z,26.90
2024-01-29T05:27:27.848Z,24.40
2024-01-29T05:28:01.849Z,22.30
2024-01-29T05:28:35.502Z,20.60
2024-01-29T05:29:08.887Z,19.10
2024-01-29T05:29:42.270Z,20.90
2024-01-29T05:30:17.357Z,21.40
2024-01-29T05:30:53.293Z,17.70
2024-01-29T05:31:26.820Z,19.20
2024-01-29T05:32:00.199Z,17.50
2024-01-29T05:32:34.003Z,19.00
2024-01-29T05:33:24.588Z,18.10
2024-01-29T05:34:00.474Z,17.30
2024-01-29T05:34:34.330Z,20.20
2024-01-29T05:35:08.378Z,18.70
2024-01-29T05:35:42.262Z,19.00
2024-01-29T05:36:16.616Z,22.40
2024-01-29T05:36:50.007Z,19.40
2024-01-29T05:37:23.488Z,19.00
2024-01-29T05:37:57.073Z,22.50
2024-01-29T05:38:33.667Z,22.40
2024-01-29T05:39:07.220Z,19.40
2024-01-29T05:39:40.768Z,20.40
2024-01-29T05:40:14.238Z,18.50
2024-01-29T05:40:48.000Z,19.60
2024-01-29T05:41:21.519Z,18.30
2024-01-29T05:41:55.159Z,22.90
2024-01-29T05:42:28.945Z,18.80
2024-01-29T05:43:02.619Z,20.30
2024-01-29T05:43:36.175Z,18.80
2024-01-29T05:44:10.546Z,18.30
2024-01-29T05:44:44.177Z,15.90
2024-01-29T05:45:18.121Z,18.30
2024-01-29T05:45:51.711Z,20.80
2024-01-29T05:46:25.411Z,16.70
2024-01-29T05:46:58.987Z,21.10
2024-01-29T05:47:33.504Z,18.90
2024-01-29T05:48:09.097Z,18.80
2024-01-29T05:48:42.926Z,18.50
2024-01-29T05:49:16.562Z,18.10
2024-01-29T05:49:51.173Z,19.80
2024-01-29T05:50:24.621Z,18.40
2024-01-29T05:50:58.223Z,18.50
2024-01-29T05:51:31.587Z,17.30
2024-01-29T05:52:06.090Z,20.70
2024-01-29T05:52:39.667Z,21.60
2024-01-29T05:53:13.257Z,19.70
2024-01-29T05:53:46.899Z,19.60
2024-01-29T05:54:20.379Z,20.60
2024-01-29T05:54:53.936Z,20.80
2024-01-29T05:55:27.624Z,22.10
2024-01-29T05:56:01.718Z,20.30
2024-01-29T05:56:35.179Z,20.80
2024-01-29T05:57:11.772Z,21.90
2024-01-29T05:57:45.860Z,21.70
2024-01-29T05:58:19.582Z,20.00
2024-01-29T05:58:53.210Z,18.90
2024-01-29T05:59:27.162Z,19.30
2024-01-29T06:00:01.628Z,20.50
2024-01-29T06:00:35.322Z,18.70
2024-01-29T06:01:09.042Z,21.20
2024-01-29T06:01:44.553Z,23.20
2024-01-29T06:02:18.385Z,24.00
2024-01-29T06:02:52.613Z,20.80
2024-01-29T06:03:26.453Z,22.60
2024-01-29T06:04:00.113Z,23.40
2024-01-29T06:04:34.210Z,23.50
2024-01-29T06:05:09.149Z,22.80
2024-01-29T06:05:43.209Z,21.70
2024-01-29T06:06:16.920Z,24.30
2024-01-29T06:06:50.610Z,23.20
2024-01-29T06:07:24.390Z,23.50
2024-01-29T06:07:58.046Z,19.60
2024-01-29T06:08:31.752Z,21.50
2024-01-29T06:09:08.165Z,24.00
2024-01-29T06:09:41.875Z,21.60
2024-01-29T06:10:16.436Z,20.90
2024-01-29T06:10:52.352Z,23.20
2024-01-29T06:11:30.479Z,22.00
2024-01-29T06:12:05.251Z,22.40
2024-01-29T06:12:39.026Z,21.50
2024-01-29T06:13:12.737Z,26.70
2024-01-29T06:13:46.377Z,21.10
2024-01-29T06:14:20.267Z,23.20
2024-01-29T06:14:54.055Z,29.40
2024-01-29T06:15:27.768Z,22.10
2024-01-29T06:16:02.632Z,21.40
2024-01-29T06:16:36.252Z,22.60
2024-01-29T06:17:09.899Z,20.70
2024-01-29T06:17:43.920Z,22.00
2024-01-29T06:18:18.208Z,23.80
2024-01-29T06:18:52.704Z,23.60
2024-01-29T06:19:26.689Z,25.00
2024-01-29T06:20:14.492Z,24.10
2024-01-29T06:20:51.702Z,23.20
2024-01-29T06:21:25.667Z,23.60
2024-01-29T06:21:59.387Z,24.80
2024-01-29T06:22:33.201Z,22.90
2024-01-29T06:23:07.820Z,20.20
2024-01-29T06:23:41.742Z,21.20
2024-01-29T06:24:15.361Z,23.50
2024-01-29T06:24:48.989Z,24.50
2024-01-29T06:25:22.697Z,22.80
2024-01-29T06:25:56.425Z,26.70
2024-01-29T06:26:30.186Z,21.50
2024-01-29T06:27:04.020Z,20.70
2024-01-29T06:27:37.819Z,21.90
2024-01-29T06:28:11.499Z,22.40
2024-01-29T06:28:45.388Z,22.60
2024-01-29T06:29:18.919Z,23.00
2024-01-29T06:29:52.521Z,23.30
2024-01-29T06:30:25.993Z,21.20
2024-01-29T06:30:59.604Z,22.90
2024-01-29T06:31:33.607Z,20.90
2024-01-29T06:32:07.614Z,22.50
2024-01-29T06:32:42.249Z,21.80
2024-01-29T06:33:16.233Z,21.90
2024-01-29T06:33:49.892Z,22.10
2024-01-29T06:34:25.377Z,20.70
2024-01-29T06:34:58.985Z,22.80
2024-01-29T06:35:32.989Z,23.70
2024-01-29T06:36:07.728Z,21.60
2024-01-29T06:36:41.323Z,22.30
2024-01-29T06:37:14.775Z,23.80
2024-01-29T06:37:48.379Z,22.30
2024-01-29T06:38:21.957Z,27.50
2024-01-29T06:38:55.607Z,24.60
2024-01-29T06:39:29.141Z,23.80
2024-01-29T06:40:02.962Z,24.60
2024-01-29T06:40:36.830Z,25.80
2024-01-29T06:41:20.513Z,24.10
2024-01-29T06:41:54.125Z,21.80
2024-01-29T06:42:27.843Z,21.00
2024-01-29T06:43:01.613Z,26.60
2024-01-29T06:43:35.612Z,25.70
2024-01-29T06:44:09.098Z,25.10
2024-01-29T06:44:43.094Z,29.30
2024-01-29T06:45:17.214Z,23.90
2024-01-29T06:45:50.851Z,25.90
2024-01-29T06:46:24.780Z,23.50
2024-01-29T06:46:58.254Z,24.00
2024-01-29T06:47:32.418Z,23.70
2024-01-29T06:48:08.499Z,25.00
2024-01-29T06:48:42.584Z,21.90
2024-01-29T06:49:28.267Z,22.70
2024-01-29T06:50:02.317Z,21.90
2024-01-29T06:50:37.321Z,23.50
2024-01-29T06:51:11.245Z,25.20
2024-01-29T06:51:44.798Z,21.10
2024-01-29T06:52:19.154Z,23.60
2024-01-29T06:52:53.135Z,24.80
2024-01-29T06:53:26.964Z,22.40
2024-01-29T06:54:02.375Z,21.70
2024-01-29T06:54:36.301Z,21.30
2024-01-29T06:55:10.189Z,22.80
2024-01-29T06:55:43.802Z,21.90
2024-01-29T06:56:17.566Z,21.50
2024-01-29T06:56:51.367Z,23.50
2024-01-29T06:57:25.225Z,25.90
2024-01-29T06:57:59.216Z,25.40
2024-01-29T06:58:33.704Z,32.40
2024-01-29T06:59:07.261Z,30.20
2024-01-29T06:59:40.932Z,33.10
2024-01-29T07:00:15.121Z,29.10
2024-01-29T07:00:48.908Z,28.30
2024-01-29T07:01:22.939Z,28.90
2024-01-29T07:02:00.470Z,27.00
2024-01-29T07:02:35.933Z,30.70
2024-01-29T07:03:09.684Z,26.40
2024-01-29T07:03:43.878Z,25.70
2024-01-29T07:04:17.748Z,26.70
2024-01-29T07:04:52.544Z,24.80
2024-01-29T07:05:26.158Z,24.70
2024-01-29T07:05:59.932Z,22.90
2024-01-29T07:06:34.201Z,22.30
2024-01-29T07:07:07.909Z,21.30
2024-01-29T07:07:41.537Z,24.30
2024-01-29T07:08:16.009Z,22.50
2024-01-29T07:08:50.766Z,19.20
2024-01-29T07:09:26.041Z,21.00
2024-01-29T07:10:00.884Z,23.90
2024-01-29T07:10:34.571Z,20.60
2024-01-29T07:11:08.141Z,23.00
2024-01-29T07:11:41.847Z,20.30
2024-01-29T07:12:16.985Z,21.90
2024-01-29T07:12:50.618Z,21.30
2024-01-29T07:13:24.155Z,20.00
2024-01-29T07:13:57.721Z,24.30
2024-01-29T07:14:31.415Z,22.70
2024-01-29T07:15:05.445Z,20.60
2024-01-29T07:15:39.708Z,16.80
2024-01-29T07:16:13.664Z,19.70
2024-01-29T07:16:47.986Z,17.80
2024-01-29T07:17:21.659Z,15.10
2024-01-29T07:17:55.249Z,16.30
2024-01-29T07:18:29.786Z,15.20
2024-01-29T07:19:03.614Z,14.20
2024-01-29T07:19:37.304Z,12.10
2024-01-29T07:20:12.517Z,12.70
2024-01-29T07:20:46.718Z,15.50